createdAt,value
2023-05-06T00:01:24.426Z,15.90
2023-05-06T00:03:52.496Z,15.90
2023-05-06T00:06:19.693Z,15.90
2023-05-06T00:08:46.888Z,15.90
2023-05-06T00:11:13.952Z,15.90
2023-05-06T00:13:41.718Z,15.90
2023-05-06T00:16:08.855Z,15.90
2023-05-06T00:18:36.461Z,15.90
2023-05-06T00:21:03.505Z,15.90
2023-05-06T00:23:30.565Z,15.90
2023-05-06T00:25:57.626Z,15.90
2023-05-06T00:28:24.708Z,15.90
2023-05-06T00:30:51.682Z,15.80
2023-05-06T00:33:18.661Z,15.90
2023-05-06T00:35:45.718Z,15.80
2023-05-06T00:38:15.405Z,15.80
2023-05-06T00:40:42.525Z,15.80
2023-05-06T00:43:10.460Z,15.80
2023-05-06T00:45:38.629Z,15.80
2023-05-06T00:48:06.934Z,15.80
2023-05-06T00:50:36.036Z,15.80
2023-05-06T00:53:05.458Z,15.90
2023-05-06T00:55:32.641Z,15.80
2023-05-06T00:57:59.789Z,15.80
2023-05-06T01:00:27.049Z,15.80
2023-05-06T01:02:54.150Z,15.80
2023-05-06T01:05:23.958Z,15.80
2023-05-06T01:08:14.320Z,15.70
2023-05-06T01:11:05.676Z,15.70
2023-05-06T01:13:36.249Z,15.70
2023-05-06T01:16:06.327Z,15.70
2023-05-06T01:18:34.310Z,15.70
2023-05-06T01:21:02.084Z,15.70
2023-05-06T01:23:29.082Z,15.60
2023-05-06T01:25:56.107Z,15.60
2023-05-06T01:28:23.173Z,15.60
2023-05-06T01:30:53.084Z,15.60
2023-05-06T01:33:38.662Z,15.60
2023-05-06T01:36:17.391Z,15.60
2023-05-06T01:39:20.884Z,15.60
2023-05-06T01:41:50.750Z,15.60
2023-05-06T01:44:21.193Z,15.50
2023-05-06T01:46:49.806Z,15.50
2023-05-06T01:49:18.911Z,15.50
2023-05-06T01:51:50.183Z,15.60
2023-05-06T01:54:17.791Z,15.60
2023-05-06T01:56:44.917Z,15.60
2023-05-06T01:59:12.055Z,15.60
2023-05-06T02:01:39.275Z,15.60
2023-05-06T02:04:06.261Z,15.70
2023-05-06T02:06:33.324Z,15.70
2023-05-06T02:09:00.355Z,15.80
2023-05-06T02:11:27.315Z,15.80
2023-05-06T02:13:55.165Z,15.90
2023-05-06T02:16:22.317Z,15.90
2023-05-06T02:18:49.604Z,15.90
2023-05-06T02:21:16.595Z,16.00
2023-05-06T02:23:43.592Z,16.00
2023-05-06T02:26:10.776Z,16.00
2023-05-06T02:28:37.796Z,16.00
2023-05-06T02:31:04.888Z,16.00
2023-05-06T02:33:31.936Z,16.10
2023-05-06T02:35:58.914Z,16.10
2023-05-06T02:38:26.200Z,16.10
2023-05-06T02:40:53.157Z,16.10
2023-05-06T02:43:20.130Z,16.10
2023-05-06T02:45:47.201Z,16.10
2023-05-06T02:48:14.246Z,16.10
2023-05-06T02:50:41.367Z,16.10
2023-05-06T02:53:09.541Z,16.10
2023-05-06T02:55:36.636Z,16.10
2023-05-06T02:58:03.612Z,16.10
2023-05-06T03:00:31.392Z,16.10
2023-05-06T03:02:58.420Z,16.10
2023-05-06T03:05:25.591Z,16.20
2023-05-06T03:07:52.942Z,16.10
2023-05-06T03:10:19.948Z,16.10
2023-05-06T03:12:46.981Z,16.20
2023-05-06T03:15:13.987Z,16.20
2023-05-06T03:17:41.077Z,16.20
2023-05-06T03:20:10.094Z,16.20
2023-05-06T03:22:37.148Z,16.20
2023-05-06T03:25:04.413Z,16.20
2023-05-06T03:27:31.424Z,16.20
2023-05-06T03:29:58.398Z,16.20
2023-05-06T03:32:25.491Z,16.20
2023-05-06T03:34:52.482Z,16.20
2023-05-06T03:37:19.559Z,16.20
2023-05-06T03:39:46.568Z,16.20
2023-05-06T03:42:13.515Z,16.20
2023-05-06T03:44:40.600Z,16.20
2023-05-06T03:47:07.631Z,16.30
2023-05-06T03:49:34.594Z,16.30
2023-05-06T03:52:01.598Z,16.30
2023-05-06T03:54:28.641Z,16.30
2023-05-06T03:56:55.703Z,16.30
2023-05-06T03:59:22.746Z,16.30
2023-05-06T04:01:49.698Z,16.30
2023-05-06T04:04:16.963Z,16.40
2023-05-06T04:06:44.303Z,16.40
2023-05-06T04:09:11.277Z,16.40
2023-05-06T04:11:38.285Z,16.40
2023-05-06T04:14:06.029Z,16.40
2023-05-06T04:16:33.107Z,16.40
2023-05-06T04:19:00.125Z,16.40
2023-05-06T04:21:27.142Z,16.50
2023-05-06T04:23:54.812Z,16.40
2023-05-06T04:26:22.033Z,16.40
2023-05-06T04:28:48.964Z,16.40
2023-05-06T04:31:16.645Z,16.40
2023-05-06T04:33:43.717Z,16.40
2023-05-06T04:36:10.753Z,16.50
2023-05-06T04:38:38.107Z,16.40
2023-05-06T04:41:05.641Z,16.40
2023-05-06T04:43:33.020Z,16.40
2023-05-06T04:46:00.116Z,16.40
2023-05-06T04:48:27.377Z,16.40
2023-05-06T04:50:54.439Z,16.40
2023-05-06T04:53:21.522Z,16.40
2023-05-06T04:55:48.594Z,16.30
2023-05-06T04:58:15.707Z,16.30
2023-05-06T05:00:42.687Z,16.40
2023-05-06T05:03:10.013Z,16.40
2023-05-06T05:05:37.111Z,16.40
2023-05-06T05:08:04.153Z,16.40
2023-05-06T05:10:31.275Z,16.40
2023-05-06T05:12:58.620Z,16.40
2023-05-06T05:15:25.597Z,16.40
2023-05-06T05:17:52.617Z,16.40
2023-05-06T05:20:19.632Z,16.40
2023-05-06T05:22:46.574Z,16.50
2023-05-06T05:25:13.731Z,16.50
2023-05-06T05:27:42.535Z,16.50
2023-05-06T05:30:10.110Z,16.60
2023-05-06T05:32:37.172Z,16.60
2023-05-06T05:35:04.552Z,16.60
2023-05-06T05:37:31.670Z,16.70
2023-05-06T05:39:58.815Z,16.70
2023-05-06T05:42:25.737Z,16.80
2023-05-06T05:44:52.845Z,16.80
2023-05-06T05:47:19.999Z,16.90
2023-05-06T05:49:46.944Z,16.90
2023-05-06T05:52:13.993Z,17.00
2023-05-06T05:54:40.978Z,17.10
2023-05-06T05:57:08.016Z,17.20
2023-05-06T05:59:35.122Z,17.30
2023-05-06T06:02:02.193Z,17.40
2023-05-06T06:04:29.321Z,17.50
2023-05-06T06:06:58.250Z,17.60
2023-05-06T06:09:25.580Z,17.80
2023-05-06T06:11:52.587Z,18.00
2023-05-06T06:14:19.627Z,18.10
2023-05-06T06:16:46.738Z,18.30
2023-05-06T06:19:15.421Z,18.50
2023-05-06T06:21:42.425Z,18.60
2023-05-06T06:24:09.414Z,18.80
2023-05-06T06:26:36.410Z,18.90
2023-05-06T06:29:03.466Z,18.90
2023-05-06T06:31:30.556Z,19.10
2023-05-06T06:33:57.691Z,19.20
2023-05-06T06:36:24.736Z,19.30
2023-05-06T06:38:51.744Z,19.30
2023-05-06T06:41:18.722Z,19.40
2023-05-06T06:43:45.789Z,19.40
2023-05-06T06:46:12.816Z,19.40
2023-05-06T06:48:39.797Z,19.40
2023-05-06T06:51:06.786Z,19.40
2023-05-06T06:53:33.749Z,19.40
2023-05-06T06:56:00.862Z,19.40
2023-05-06T06:58:27.817Z,19.60
2023-05-06T07:00:54.850Z,19.60
2023-05-06T07:03:21.893Z,19.60
2023-05-06T07:05:49.530Z,19.70
2023-05-06T07:08:17.382Z,19.70
2023-05-06T07:10:44.467Z,19.70
2023-05-06T07:13:11.491Z,19.80
2023-05-06T07:15:38.531Z,19.90
2023-05-06T07:18:05.885Z,20.00
2023-05-06T07:20:32.994Z,20.10
2023-05-06T07:22:59.941Z,20.20
2023-05-06T07:25:28.185Z,20.40
2023-05-06T07:27:55.141Z,20.70
2023-05-06T07:30:23.353Z,20.80
2023-05-06T07:32:50.995Z,21.00
2023-05-06T07:35:18.289Z,21.20
2023-05-06T07:37:48.256Z,21.20
2023-05-06T07:40:15.229Z,21.40
2023-05-06T07:42:43.113Z,21.50
2023-05-06T07:45:11.426Z,21.60
2023-05-06T07:47:38.991Z,21.60
2023-05-06T07:50:07.038Z,21.70
2023-05-06T07:52:34.587Z,21.70
2023-05-06T07:55:01.619Z,21.70
2023-05-06T07:57:28.559Z,21.80
2023-05-06T07:59:55.765Z,21.90
2023-05-06T08:02:23.202Z,21.90
2023-05-06T08:04:51.637Z,22.10
2023-05-06T08:07:19.353Z,22.10
2023-05-06T08:09:46.550Z,22.20
2023-05-06T08:12:13.638Z,22.30
2023-05-06T08:14:41.214Z,22.40
2023-05-06T08:17:08.385Z,22.50
2023-05-06T08:19:35.368Z,22.50
2023-05-06T08:22:02.385Z,22.40
2023-05-06T08:24:29.377Z,22.30
2023-05-06T08:26:56.360Z,22.20
2023-05-06T08:29:23.319Z,22.20
2023-05-06T08:31:50.528Z,22.20
2023-05-06T08:34:19.307Z,22.30
2023-05-06T08:36:46.307Z,22.30
2023-05-06T08:39:14.646Z,22.30
2023-05-06T08:41:44.690Z,22.20
2023-05-06T08:44:18.831Z,22.20
2023-05-06T08:46:47.221Z,22.30
2023-05-06T08:49:14.313Z,22.30
2023-05-06T08:51:44.041Z,22.30
2023-05-06T08:54:13.049Z,22.30
2023-05-06T08:56:47.762Z,22.40
2023-05-06T08:59:15.576Z,22.50
2023-05-06T09:01:42.604Z,22.60
2023-05-06T09:04:10.868Z,22.90
2023-05-06T09:06:37.881Z,22.90
2023-05-06T09:09:05.818Z,22.90
2023-05-06T09:11:36.324Z,22.90
2023-05-06T09:14:15.813Z,22.90
2023-05-06T09:16:45.180Z,22.90
2023-05-06T09:19:13.005Z,22.90
2023-05-06T09:21:43.092Z,22.90
2023-05-06T09:24:11.967Z,22.80
2023-05-06T09:26:41.084Z,22.90
2023-05-06T09:29:08.427Z,23.00
2023-05-06T09:31:44.407Z,23.30
2023-05-06T09:34:12.896Z,23.40
2023-05-06T09:36:39.979Z,23.40
2023-05-06T09:39:07.457Z,23.20
2023-05-06T09:41:34.631Z,23.20
2023-05-06T09:44:01.687Z,23.10
2023-05-06T09:46:29.289Z,23.00
2023-05-06T09:48:58.493Z,22.80
2023-05-06T09:51:28.000Z,22.70
2023-05-06T09:53:57.019Z,22.50
2023-05-06T09:56:25.000Z,22.40
2023-05-06T09:58:54.577Z,22.20
2023-05-06T10:01:35.160Z,22.10
2023-05-06T10:04:06.279Z,21.80
2023-05-06T10:06:36.945Z,21.70
2023-05-06T10:09:06.447Z,21.60
2023-05-06T10:11:33.531Z,21.70
2023-05-06T10:14:02.530Z,21.90
2023-05-06T10:16:30.117Z,22.20
2023-05-06T10:18:58.420Z,22.50
2023-05-06T10:21:28.005Z,22.80
2023-05-06T10:24:07.645Z,23.10
2023-05-06T10:26:37.656Z,23.20
2023-05-06T10:29:10.003Z,23.10
2023-05-06T10:31:46.435Z,23.00
2023-05-06T10:34:13.774Z,22.90
2023-05-06T10:36:43.628Z,22.70
2023-05-06T10:39:13.748Z,22.40
2023-05-06T10:41:40.968Z,22.30
2023-05-06T10:44:08.144Z,22.20
2023-05-06T10:46:59.318Z,22.20
2023-05-06T10:49:27.153Z,22.20
2023-05-06T10:52:13.628Z,22.30
2023-05-06T10:54:53.166Z,22.40
2023-05-06T10:57:27.165Z,22.80
2023-05-06T10:59:55.682Z,23.10
2023-05-06T11:02:24.225Z,23.10
2023-05-06T11:04:59.594Z,23.00
2023-05-06T11:07:27.105Z,22.90
2023-05-06T11:10:01.390Z,22.90
2023-05-06T11:12:49.540Z,22.80
2023-05-06T11:15:26.622Z,22.70
2023-05-06T11:17:55.830Z,22.50
2023-05-06T11:20:25.726Z,22.30
2023-05-06T11:22:53.642Z,22.10
2023-05-06T11:25:41.000Z,21.90
2023-05-06T11:28:11.815Z,21.60
2023-05-06T11:30:42.819Z,21.40
2023-05-06T11:33:18.001Z,21.20
2023-05-06T11:35:45.851Z,21.00
2023-05-06T11:38:12.837Z,20.90
2023-05-06T11:40:42.742Z,20.90
2023-05-06T11:43:11.336Z,20.90
2023-05-06T11:45:47.274Z,20.70
2023-05-06T11:48:15.127Z,20.70
2023-05-06T11:50:47.492Z,20.60
2023-05-06T11:53:19.107Z,20.70
2023-05-06T11:55:47.612Z,20.60
2023-05-06T11:58:20.184Z,20.70
2023-05-06T12:00:54.122Z,20.70
2023-05-06T12:03:22.431Z,20.70
2023-05-06T12:05:51.525Z,20.80
2023-05-06T12:08:27.949Z,20.80
2023-05-06T12:11:01.810Z,20.90
2023-05-06T12:13:29.707Z,20.90
2023-05-06T12:16:01.655Z,20.90
2023-05-06T12:18:28.966Z,21.00
2023-05-06T12:20:57.631Z,21.10
2023-05-06T12:23:24.699Z,21.20
2023-05-06T12:26:05.917Z,21.30
2023-05-06T12:28:35.238Z,21.40
2023-05-06T12:31:21.088Z,21.50
2023-05-06T12:33:49.936Z,21.50
2023-05-06T12:36:18.128Z,21.60
2023-05-06T12:38:56.445Z,21.80
2023-05-06T12:41:25.971Z,22.10
2023-05-06T12:43:53.049Z,22.40
2023-05-06T12:46:20.202Z,22.60
2023-05-06T12:49:03.515Z,22.80
2023-05-06T12:51:31.209Z,23.00
2023-05-06T12:53:58.270Z,23.20
2023-05-06T12:56:25.369Z,23.40
2023-05-06T12:59:01.112Z,23.50
2023-05-06T13:01:28.392Z,23.40
2023-05-06T13:03:57.320Z,23.30
2023-05-06T13:06:24.380Z,23.20
2023-05-06T13:08:51.406Z,23.10
2023-05-06T13:11:18.548Z,23.10
2023-05-06T13:13:45.517Z,22.90
2023-05-06T13:16:12.593Z,22.90
2023-05-06T13:18:39.643Z,22.70
2023-05-06T13:21:06.959Z,22.60
2023-05-06T13:23:35.304Z,22.40
2023-05-06T13:26:06.178Z,22.20
2023-05-06T13:28:35.547Z,22.00
2023-05-06T13:31:02.681Z,21.70
2023-05-06T13:33:30.162Z,20.70
2023-05-06T13:35:57.398Z,19.90
2023-05-06T13:38:24.457Z,19.00
2023-05-06T13:40:53.122Z,18.20
2023-05-06T13:43:21.714Z,17.70
2023-05-06T13:45:48.702Z,17.20
2023-05-06T13:48:15.916Z,17.00
2023-05-06T13:50:46.507Z,17.00
2023-05-06T13:53:14.922Z,17.00
2023-05-06T13:55:43.177Z,17.20
2023-05-06T13:58:11.236Z,17.60
2023-05-06T14:00:38.526Z,18.20
2023-05-06T14:03:05.577Z,18.80
2023-05-06T14:05:32.891Z,19.20
2023-05-06T14:07:59.994Z,19.60
2023-05-06T14:10:27.100Z,19.80
2023-05-06T14:12:54.191Z,20.00
2023-05-06T14:15:21.565Z,20.00
2023-05-06T14:17:48.626Z,20.10
2023-05-06T14:20:15.924Z,20.10
2023-05-06T14:22:43.629Z,20.20
2023-05-06T14:25:11.528Z,20.20
2023-05-06T14:27:38.872Z,20.30
2023-05-06T14:30:08.812Z,20.50
2023-05-06T14:32:37.271Z,20.60
2023-05-06T14:35:04.998Z,20.70
2023-05-06T14:37:32.145Z,20.60
2023-05-06T14:39:59.194Z,20.60
2023-05-06T14:42:26.232Z,20.70
2023-05-06T14:44:53.476Z,20.90
2023-05-06T14:47:22.136Z,21.10
2023-05-06T14:49:49.265Z,21.20
2023-05-06T14:52:16.344Z,21.20
2023-05-06T14:54:43.393Z,21.30
2023-05-06T14:57:11.482Z,21.30
2023-05-06T14:59:39.160Z,21.30
2023-05-06T15:02:09.289Z,21.30
2023-05-06T15:04:37.328Z,21.30
2023-05-06T15:07:04.734Z,21.30
2023-05-06T15:09:31.766Z,21.20
2023-05-06T15:11:58.851Z,21.10
2023-05-06T15:14:26.169Z,21.00
2023-05-06T15:16:57.271Z,21.00
2023-05-06T15:19:24.917Z,20.90
2023-05-06T15:21:51.897Z,20.90
2023-05-06T15:24:18.880Z,20.70
2023-05-06T15:26:46.062Z,20.60
2023-05-06T15:29:13.200Z,20.60
2023-05-06T15:31:41.214Z,20.80
2023-05-06T15:34:10.860Z,20.90
2023-05-06T15:36:38.755Z,21.00
2023-05-06T15:39:05.786Z,21.00
2023-05-06T15:41:34.422Z,21.10
2023-05-06T15:44:02.919Z,21.00
2023-05-06T15:46:32.541Z,20.90
2023-05-06T15:51:31.178Z,20.90
2023-05-06T15:53:58.602Z,20.80
2023-05-06T15:56:27.088Z,20.70
2023-05-06T15:58:55.211Z,20.70
2023-05-06T16:01:42.284Z,20.70
2023-05-06T16:04:09.599Z,20.80
2023-05-06T16:06:36.861Z,20.80
2023-05-06T16:09:04.086Z,20.80
2023-05-06T16:11:31.156Z,20.70
2023-05-06T16:13:58.169Z,20.70
2023-05-06T16:16:25.372Z,20.70
2023-05-06T16:18:52.470Z,20.70
2023-05-06T16:21:19.605Z,20.80
2023-05-06T16:23:46.607Z,20.80
2023-05-06T16:26:14.943Z,20.80
2023-05-06T16:28:41.937Z,20.80
2023-05-06T16:31:09.046Z,20.80
2023-05-06T16:33:36.047Z,20.80
2023-05-06T16:36:03.848Z,20.80
2023-05-06T16:38:30.857Z,20.70
2023-05-06T16:40:58.186Z,20.70
2023-05-06T16:43:25.475Z,20.60
2023-05-06T16:45:52.505Z,20.60
2023-05-06T16:48:19.498Z,20.50
2023-05-06T16:50:46.716Z,20.50
2023-05-06T16:53:13.769Z,20.40
2023-05-06T16:55:40.716Z,20.40
2023-05-06T16:58:07.726Z,20.40
2023-05-06T17:00:34.935Z,20.30
2023-05-06T17:03:03.979Z,20.20
2023-05-06T17:05:31.209Z,20.20
2023-05-06T17:07:58.300Z,20.20
2023-05-06T17:10:29.994Z,20.20
2023-05-06T17:12:57.888Z,20.20
2023-05-06T17:15:26.032Z,20.30
2023-05-06T17:17:53.180Z,20.30
2023-05-06T17:20:20.504Z,20.20
2023-05-06T17:22:47.958Z,20.20
2023-05-06T17:25:15.577Z,20.20
2023-05-06T17:27:42.632Z,20.10
2023-05-06T17:30:09.986Z,20.00
2023-05-06T17:32:37.850Z,19.90
2023-05-06T17:35:05.210Z,19.90
2023-05-06T17:37:32.291Z,19.80
2023-05-06T17:39:59.437Z,19.70
2023-05-06T17:42:27.717Z,19.70
2023-05-06T17:44:55.152Z,19.60
2023-05-06T17:47:23.230Z,19.50
2023-05-06T17:49:53.879Z,19.40
2023-05-06T17:52:21.223Z,19.30
2023-05-06T17:55:05.699Z,19.30
2023-05-06T17:57:38.208Z,19.20
2023-05-06T18:00:07.446Z,19.10
2023-05-06T18:02:34.870Z,19.00
2023-05-06T18:05:02.006Z,18.90
2023-05-06T18:07:29.894Z,18.80
2023-05-06T18:09:56.900Z,18.70
2023-05-06T18:12:24.269Z,18.60
2023-05-06T18:14:51.265Z,18.50
2023-05-06T18:17:18.270Z,18.50
2023-05-06T18:19:45.231Z,18.40
2023-05-06T18:22:12.236Z,18.30
2023-05-06T18:24:39.378Z,18.30
2023-05-06T18:27:06.419Z,18.20
2023-05-06T18:29:34.975Z,18.10
2023-05-06T18:32:02.403Z,18.10
2023-05-06T18:34:29.745Z,18.00
2023-05-06T18:36:58.017Z,17.90
2023-05-06T18:39:25.022Z,17.80
2023-05-06T18:41:51.949Z,17.80
2023-05-06T18:44:18.953Z,17.70
2023-05-06T18:46:46.268Z,17.60
2023-05-06T18:49:14.452Z,17.60
2023-05-06T18:51:41.537Z,17.50
2023-05-06T18:54:08.594Z,17.40
2023-05-06T18:56:36.909Z,17.40
2023-05-06T18:59:04.118Z,17.30
2023-05-06T19:01:31.437Z,17.30
2023-05-06T19:03:58.478Z,17.20
2023-05-06T19:06:25.555Z,17.20
2023-05-06T19:08:53.704Z,17.10
2023-05-06T19:11:21.550Z,17.10
2023-05-06T19:13:49.941Z,17.10
2023-05-06T19:16:16.914Z,17.00
2023-05-06T19:18:44.029Z,17.10
2023-05-06T19:21:12.767Z,17.10
2023-05-06T19:23:39.924Z,17.10
2023-05-06T19:26:10.136Z,17.10
2023-05-06T19:28:37.956Z,17.10
2023-05-06T19:31:09.797Z,17.00
2023-05-06T19:33:38.312Z,17.10
2023-05-06T19:36:05.782Z,17.10
2023-05-06T19:38:32.814Z,17.00
2023-05-06T19:40:59.742Z,17.00
2023-05-06T19:43:26.720Z,16.90
2023-05-06T19:45:53.774Z,16.80
2023-05-06T19:48:22.319Z,16.70
2023-05-06T19:50:49.977Z,16.70
2023-05-06T19:53:18.314Z,16.60
2023-05-06T19:55:45.514Z,16.50
2023-05-06T19:58:14.359Z,16.50
2023-05-06T20:00:41.437Z,16.50
2023-05-06T20:03:09.760Z,16.40
2023-05-06T20:05:36.964Z,16.40
2023-05-06T20:08:04.351Z,16.40
2023-05-06T20:10:31.469Z,16.40
2023-05-06T20:12:58.546Z,16.30
2023-05-06T20:15:26.819Z,16.30
2023-05-06T20:17:53.986Z,16.30
2023-05-06T20:20:21.436Z,16.30
2023-05-06T20:22:48.492Z,16.20
2023-05-06T20:25:17.585Z,16.10
2023-05-06T20:27:45.514Z,16.10
2023-05-06T20:30:12.838Z,16.00
2023-05-06T20:32:41.107Z,16.00
2023-05-06T20:35:09.020Z,16.00
2023-05-06T20:37:36.741Z,16.00
2023-05-06T20:40:05.960Z,15.90
2023-05-06T20:42:32.915Z,15.90
2023-05-06T20:45:00.557Z,15.90
2023-05-06T20:47:27.671Z,15.80
2023-05-06T20:49:55.161Z,15.80
2023-05-06T20:52:22.382Z,15.80
2023-05-06T20:54:49.845Z,15.70
2023-05-06T20:57:17.583Z,15.70
2023-05-06T20:59:44.856Z,15.60
2023-05-06T21:02:11.860Z,15.60
2023-05-06T21:04:39.004Z,15.60
2023-05-06T21:07:05.988Z,15.50
2023-05-06T21:09:33.174Z,15.50
2023-05-06T21:12:00.311Z,15.50
2023-05-06T21:14:27.822Z,15.50
2023-05-06T21:16:54.959Z,15.40
2023-05-06T21:19:21.961Z,15.40
2023-05-06T21:21:48.974Z,15.40
2023-05-06T21:24:16.186Z,15.40
2023-05-06T21:26:43.267Z,15.30
2023-05-06T21:29:10.655Z,15.30
2023-05-06T21:31:37.892Z,15.30
2023-05-06T21:34:07.947Z,15.30
2023-05-06T21:36:38.004Z,15.30
2023-05-06T21:39:10.389Z,15.30
2023-05-06T21:41:37.594Z,15.30
2023-05-06T21:44:06.174Z,15.30
2023-05-06T21:46:33.878Z,15.30
2023-05-06T21:49:01.373Z,15.30
2023-05-06T21:51:30.398Z,15.30
2023-05-06T21:53:57.354Z,15.30
2023-05-06T21:56:24.482Z,15.30
2023-05-06T21:58:52.585Z,15.30
2023-05-06T22:01:19.637Z,15.30
2023-05-06T22:03:46.853Z,15.30
2023-05-06T22:06:14.704Z,15.40
2023-05-06T22:08:42.511Z,15.30
2023-05-06T22:11:09.578Z,15.40
2023-05-06T22:13:36.614Z,15.40
2023-05-06T22:16:04.268Z,15.40
2023-05-06T22:18:32.293Z,15.40
2023-05-06T22:20:59.336Z,15.30
2023-05-06T22:23:28.272Z,15.30
2023-05-06T22:25:55.337Z,15.30
2023-05-06T22:28:22.378Z,15.30
2023-05-06T22:30:49.530Z,15.30
2023-05-06T22:33:16.629Z,15.30
2023-05-06T22:35:45.228Z,15.30
2023-05-06T22:38:12.235Z,15.30
2023-05-06T22:40:39.197Z,15.30
2023-05-06T22:43:06.161Z,15.30
2023-05-06T22:45:33.188Z,15.30
2023-05-06T22:48:00.245Z,15.30
2023-05-06T22:50:27.251Z,15.30
2023-05-06T22:52:54.264Z,15.20
2023-05-06T22:55:21.277Z,15.20
2023-05-06T22:57:53.947Z,15.20
2023-05-06T23:00:21.640Z,15.20
2023-05-06T23:02:48.720Z,15.20
2023-05-06T23:05:16.015Z,15.20
2023-05-06T23:07:43.041Z,15.20
2023-05-06T23:10:10.378Z,15.20
2023-05-06T23:12:37.430Z,15.20
2023-05-06T23:15:04.944Z,15.10
2023-05-06T23:17:32.499Z,15.10
2023-05-06T23:19:59.714Z,15.10
2023-05-06T23:22:27.007Z,15.10
2023-05-06T23:24:54.029Z,15.10
2023-05-06T23:27:21.030Z,15.10
2023-05-06T23:29:47.986Z,15.20
2023-05-06T23:32:15.041Z,15.10
2023-05-06T23:34:42.072Z,15.20
2023-05-06T23:37:09.956Z,15.10
2023-05-06T23:39:37.008Z,15.20
2023-05-06T23:42:04.170Z,15.20
2023-05-06T23:44:31.495Z,15.20
2023-05-06T23:46:58.516Z,15.10
2023-05-06T23:49:25.534Z,15.10
2023-05-06T23:51:52.613Z,15.10
2023-05-06T23:54:19.644Z,15.10
2023-05-06T23:56:46.613Z,15.10
2023-05-06T23:59:13.642Z,15.10
